Flugplatz Kührstedt-Bederkesa

Für EDXZ sind keine METAR/TAF Berichte vorhanden.
Es werden die Flugwettermeldungen vom Flugplatz Nordholz Airport in 23 km Entfernung angezeigt.

Bericht für ETMN

vom 15.07. um 18:00 UTC

Wind 7 kt aus 340°

Sichtweite 10 km oder mehr

gering bewölkt in 2000 ft

aufgebrochene Bewölkung in 6500 ft

aufgebrochene Bewölkung in 8000 ft

Temperatur 16.0°C

Taupunkt 11.0°C

Luftfeuchtigkeit 72%

Luftdruck 1014 hPa

ETMN 151800Z 34007KT 9999 FEW020TCU BKN065 BKN080 16/11 Q1014 BLU FCST CANCEL

Prognose für ETMN

vom 15.07. um 16:11 UTC

Zwischen 17:00 UTC und 22:00 UTC

Wind 7 kt aus 330°

Sichtweite 10 km oder mehr

keine signifikanten Wettererscheinungen

aufgelockert bewölkt in 2000 ft

aufgebrochene Bewölkung in 8000 ft


Zwischen 22:00 und 00:00 UTC übergehend zu

Wind 4 kt aus 240°

Sichtweite 9000 m

keine signifikanten Wettererscheinungen

aufgelockert bewölkt in 8000 ft

TAF ETMN 151611Z 1517/1602 33007KT 9999 NSW SCT020 BKN080 BECMG 1522/1524 24004KT 9000 NSW SCT080
Impressum